Time;durP1;ratioP1;P1;durP2;ratioP2;P2;SDS_P1;SDS_P2;PMS_P1;PMS_P2;Temp;Humidity;BMP_temperature;BMP_pressure;BME280_temperature;BME280_humidity;BME280_pressure;Samples;Min_cycle;Max_cycle;Signal;HPM_P1;HPM_P2
2022/02/21 00:01:46;;;;;;;1.97;1.10;;;;;;;12.43;51.36;96418.44;4995010;28;20259;-71
2022/02/21 00:04:12;;;;;;;2.60;1.10;;;;;;;12.29;51.81;96402.50;5013107;28;20187;-70
2022/02/21 00:06:37;;;;;;;3.53;1.30;;;;;;;12.56;51.25;96391.50;5030507;28;20253;-72
2022/02/21 00:09:03;;;;;;;4.40;1.33;;;;;;;12.20;51.90;96387.81;5030135;28;20183;-71
2022/02/21 00:11:28;;;;;;;1.87;1.07;;;;;;;12.36;51.46;96389.44;5030385;28;20191;-72
2022/02/21 00:13:54;;;;;;;2.83;1.13;;;;;;;12.32;51.57;96397.88;5029914;28;20187;-70
2022/02/21 00:16:19;;;;;;;2.83;1.07;;;;;;;12.34;51.12;96373.06;5029250;28;20239;-71
2022/02/21 00:18:45;;;;;;;2.53;1.07;;;;;;;12.24;51.45;96365.47;5029984;28;20188;-71
2022/02/21 00:21:10;;;;;;;2.40;1.00;;;;;;;12.26;51.41;96371.34;5029621;28;20222;-69
2022/02/21 00:23:36;;;;;;;2.37;1.07;;;;;;;12.64;50.60;96357.22;5010744;28;20697;-70
2022/02/21 00:26:01;;;;;;;6.00;1.27;;;;;;;12.38;50.80;96337.53;5029183;28;20257;-71
2022/02/21 00:28:27;;;;;;;3.47;1.47;;;;;;;12.54;50.61;96333.84;5028982;28;20191;-71
2022/02/21 00:30:53;;;;;;;3.23;1.00;;;;;;;12.53;50.68;96334.03;5029518;28;20711;-70
2022/02/21 00:33:18;;;;;;;4.63;1.40;;;;;;;12.52;51.10;96343.75;5029595;28;20465;-71
2022/02/21 00:35:44;;;;;;;4.30;1.23;;;;;;;12.44;50.92;96326.28;5029849;28;20233;-70
2022/02/21 00:38:09;;;;;;;2.53;1.00;;;;;;;12.35;51.16;96348.41;5029611;28;20644;-70
2022/02/21 00:40:35;;;;;;;3.90;1.47;;;;;;;12.61;50.93;96307.63;5030425;28;20640;-72
2022/02/21 00:43:01;;;;;;;4.57;1.40;;;;;;;12.66;51.04;96304.47;5033827;28;20196;-71
2022/02/21 00:45:26;;;;;;;2.40;1.00;;;;;;;12.61;50.88;96307.63;5034088;28;20310;-72
2022/02/21 00:47:52;;;;;;;4.13;1.60;;;;;;;12.63;51.06;96310.09;5033815;28;20188;-72
2022/02/21 00:50:17;;;;;;;5.47;1.27;;;;;;;12.60;51.97;96338.38;5034534;28;20242;-72
2022/02/21 00:52:43;;;;;;;3.60;1.13;;;;;;;12.36;53.15;96329.00;5015509;28;20191;-72
2022/02/21 00:55:08;;;;;;;3.10;1.30;;;;;;;12.50;53.03;96313.38;5033924;28;20321;-71
2022/02/21 00:57:34;;;;;;;3.20;1.20;;;;;;;12.37;53.40;96325.38;5039858;28;20184;-72
2022/02/21 01:00:00;;;;;;;6.60;1.30;;;;;;;12.35;53.17;96311.63;5034475;28;20268;-72
2022/02/21 01:02:25;;;;;;;3.10;1.10;;;;;;;12.22;53.72;96309.66;5034403;28;20191;-72
2022/02/21 01:04:50;;;;;;;4.03;1.17;;;;;;;12.29;53.76;96296.59;5034062;28;20317;-72
2022/02/21 01:07:16;;;;;;;5.60;1.27;;;;;;;12.40;53.64;96282.97;5033234;28;20220;-72
2022/02/21 01:09:41;;;;;;;3.03;1.00;;;;;;;12.18;54.10;96283.94;5034058;28;20649;-73
2022/02/21 01:12:07;;;;;;;4.40;1.50;;;;;;;12.12;54.40;96278.44;5034079;28;20188;-72
2022/02/21 01:14:33;;;;;;;3.10;1.30;;;;;;;12.12;54.71;96286.31;5027547;28;20188;-71
2022/02/21 01:16:58;;;;;;;4.07;1.23;;;;;;;12.17;54.38;96279.69;5034008;28;20465;-71
2022/02/21 01:19:24;;;;;;;2.70;0.97;;;;;;;12.12;54.88;96260.03;4999704;28;20194;-71
2022/02/21 01:21:49;;;;;;;1.90;1.27;;;;;;;12.29;54.45;96249.31;5034172;28;20188;-72
2022/02/21 01:24:15;;;;;;;3.23;1.37;;;;;;;12.07;55.03;96246.66;5033500;28;20186;-72
2022/02/21 01:26:40;;;;;;;2.90;1.13;;;;;;;12.17;55.17;96235.84;5033622;28;20214;-72
2022/02/21 01:29:06;;;;;;;3.27;1.33;;;;;;;12.12;55.06;96233.78;5034066;28;20196;-71
2022/02/21 01:31:31;;;;;;;4.10;1.03;;;;;;;11.97;55.58;96235.63;5033655;28;20184;-70
2022/02/21 01:33:57;;;;;;;5.00;1.10;;;;;;;11.89;55.65;96223.41;5016309;28;20188;-71
2022/02/21 01:36:22;;;;;;;4.40;1.20;;;;;;;12.07;55.50;96215.16;5033192;28;20301;-70
2022/02/21 01:38:48;;;;;;;3.10;1.30;;;;;;;12.09;55.20;96215.78;5033828;28;20180;-72
2022/02/21 01:41:13;;;;;;;2.43;1.10;;;;;;;12.00;55.18;96224.75;5033262;28;20275;-72
2022/02/21 01:43:39;;;;;;;3.40;1.10;;;;;;;12.09;55.15;96213.16;5033682;28;20194;-72
2022/02/21 01:46:05;;;;;;;4.37;1.27;;;;;;;11.97;55.18;96219.88;5033349;28;20234;-71
2022/02/21 01:48:30;;;;;;;4.97;1.20;;;;;;;11.90;55.58;96182.22;5033852;28;20258;-71
2022/02/21 01:50:56;;;;;;;5.93;1.43;;;;;;;11.96;55.10;96187.53;5033725;28;20215;-72
2022/02/21 01:53:21;;;;;;;3.33;1.10;;;;;;;12.03;54.89;96177.13;5014993;28;20657;-71
2022/02/21 01:55:47;;;;;;;2.50;1.17;;;;;;;12.11;54.97;96190.13;5015116;28;20202;-73
2022/02/21 01:58:12;;;;;;;6.40;1.40;;;;;;;12.09;54.69;96181.66;5033333;28;20188;-73
2022/02/21 02:00:38;;;;;;;2.80;1.10;;;;;;;12.23;54.54;96179.97;5017865;28;20190;-72
2022/02/21 02:03:03;;;;;;;1.77;0.90;;;;;;;11.82;55.12;96176.09;5034895;28;20192;-72
2022/02/21 02:05:29;;;;;;;1.97;1.03;;;;;;;12.16;54.04;96175.63;5033204;28;20216;-72
2022/02/21 02:07:54;;;;;;;1.80;1.10;;;;;;;12.26;53.61;96158.56;5033683;28;20184;-72
2022/02/21 02:10:20;;;;;;;1.90;0.93;;;;;;;11.96;54.56;96157.84;5033203;28;20206;-71
2022/02/21 02:12:46;;;;;;;1.97;0.93;;;;;;;11.92;54.29;96140.84;5033341;28;20183;-71
2022/02/21 02:15:13;;;;;;;1.93;0.90;;;;;;;12.09;53.99;96131.75;5032942;28;20186;-71
2022/02/21 02:17:39;;;;;;;1.20;0.87;;;;;;;11.81;54.58;96124.59;5033017;28;20962;-70
2022/02/21 02:20:05;;;;;;;1.90;0.90;;;;;;;12.00;54.39;96109.22;5033100;28;20438;-72
2022/02/21 02:22:30;;;;;;;2.90;0.93;;;;;;;12.05;54.15;96109.50;5032558;28;20547;-72
2022/02/21 02:24:56;;;;;;;1.40;0.80;;;;;;;12.19;53.69;96088.59;5032540;28;20180;-71
2022/02/21 02:27:22;;;;;;;2.17;0.90;;;;;;;11.86;54.66;96102.19;5032515;28;20220;-72
2022/02/21 02:29:52;;;;;;;2.50;1.00;;;;;;;12.14;54.19;96092.59;5032827;28;20641;-72
2022/02/21 02:32:20;;;;;;;2.17;1.00;;;;;;;11.98;54.40;96095.47;5032806;28;20422;-71
2022/02/21 02:34:46;;;;;;;2.13;0.90;;;;;;;12.02;54.55;96067.84;5032648;28;20809;-71
2022/02/21 02:37:12;;;;;;;1.97;0.80;;;;;;;12.31;54.55;96081.81;5032422;28;20454;-72
2022/02/21 02:39:37;;;;;;;3.90;0.97;;;;;;;12.13;55.04;96067.31;5032426;28;20668;-71
2022/02/21 02:42:03;;;;;;;1.43;0.90;;;;;;;12.17;55.82;96061.69;5032330;28;20442;-71
2022/02/21 02:44:29;;;;;;;2.40;0.90;;;;;;;12.18;56.04;96047.56;5041839;28;20191;-71
2022/02/21 02:46:55;;;;;;;2.13;1.07;;;;;;;11.80;56.38;96052.09;5032102;28;20474;-71
2022/02/21 02:49:20;;;;;;;4.83;1.50;;;;;;;11.95;57.39;96038.88;5032510;28;20183;-71
2022/02/21 02:51:46;;;;;;;1.57;0.90;;;;;;;12.09;56.68;96039.84;5032466;28;20315;-71
2022/02/21 02:54:12;;;;;;;4.13;1.17;;;;;;;11.73;57.46;96034.66;5031778;28;20227;-71
2022/02/21 02:56:39;;;;;;;2.40;0.90;;;;;;;12.08;56.62;96022.47;5031822;28;20314;-71
2022/02/21 02:59:05;;;;;;;1.40;0.90;;;;;;;12.25;55.90;96006.38;5014389;28;20434;-71
2022/02/21 03:01:31;;;;;;;2.87;0.83;;;;;;;12.17;56.17;96001.28;5031814;28;20427;-70
2022/02/21 03:03:56;;;;;;;2.43;0.70;;;;;;;12.17;55.91;95998.66;5032333;28;20438;-69
2022/02/21 03:06:22;;;;;;;1.63;0.80;;;;;;;12.10;55.96;95972.34;5038968;28;20307;-71
2022/02/21 03:08:48;;;;;;;1.20;0.90;;;;;;;11.91;55.84;95986.94;5031724;28;20321;-71
2022/02/21 03:11:13;;;;;;;2.50;0.73;;;;;;;11.86;55.65;95986.69;5013849;28;20293;-70
2022/02/21 03:13:39;;;;;;;2.23;0.90;;;;;;;12.00;55.31;95977.94;5031926;28;20184;-72
2022/02/21 03:16:05;;;;;;;1.30;0.90;;;;;;;11.95;55.28;95965.38;5031712;28;20208;-72
2022/02/21 03:18:31;;;;;;;4.47;1.10;;;;;;;12.08;54.81;95969.94;5014023;28;20215;-71
2022/02/21 03:20:56;;;;;;;1.13;0.60;;;;;;;12.03;54.50;95950.50;5031953;28;20179;-70
2022/02/21 03:23:23;;;;;;;4.90;0.80;;;;;;;12.02;54.77;95973.31;5031111;28;20660;-71
2022/02/21 03:25:49;;;;;;;4.10;1.40;;;;;;;11.98;55.46;95969.44;5031266;28;20222;-71
2022/02/21 03:28:14;;;;;;;3.03;0.83;;;;;;;12.06;55.23;96008.69;5031580;28;20431;-71
2022/02/21 03:30:40;;;;;;;1.20;0.70;;;;;;;12.09;55.13;96021.47;5031805;28;20431;-71
2022/02/21 03:33:07;;;;;;;3.43;0.80;;;;;;;12.02;55.93;96017.16;5031719;28;20204;-72
2022/02/21 03:35:32;;;;;;;1.80;0.80;;;;;;;11.78;57.53;96042.78;5023155;28;20284;-71
2022/02/21 03:37:58;;;;;;;1.57;0.70;;;;;;;11.97;57.81;96067.59;5031649;28;21039;-71
2022/02/21 03:40:23;;;;;;;1.93;1.33;;;;;;;11.90;58.51;96092.94;5031172;28;20191;-71
2022/02/21 03:42:51;;;;;;;2.70;1.30;;;;;;;12.17;57.99;96149.16;5031320;28;20210;-71
2022/02/21 03:45:19;;;;;;;2.90;1.00;;;;;;;12.10;58.84;96167.50;5030858;28;20202;-71
2022/02/21 03:47:45;;;;;;;1.23;0.60;;;;;;;11.76;57.68;96225.88;5031593;28;20876;-71
2022/02/21 03:50:11;;;;;;;1.87;0.70;;;;;;;11.28;55.52;96236.75;5031336;28;20422;-71
2022/02/21 03:52:37;;;;;;;1.17;0.50;;;;;;;10.84;54.97;96240.94;5030656;28;20437;-70
2022/02/21 03:55:02;;;;;;;1.00;0.67;;;;;;;10.65;55.17;96257.97;5031026;28;20266;-70
2022/02/21 03:57:28;;;;;;;1.00;0.50;;;;;;;10.46;55.44;96265.31;5012725;28;20202;-70
2022/02/21 03:59:53;;;;;;;1.00;0.40;;;;;;;10.28;55.22;96287.34;5031305;28;20438;-71
2022/02/21 04:02:19;;;;;;;4.40;1.13;;;;;;;9.89;55.14;96285.56;5030959;28;20190;-70
2022/02/21 04:04:44;;;;;;;1.60;0.60;;;;;;;9.33;56.40;96340.50;5030902;28;20318;-71
2022/02/21 04:07:10;;;;;;;1.50;0.60;;;;;;;9.19;56.42;96329.72;5030589;28;20234;-70
2022/02/21 04:09:36;;;;;;;2.03;0.90;;;;;;;8.87;56.61;96325.31;5031289;28;20189;-71
2022/02/21 04:12:03;;;;;;;2.30;0.80;;;;;;;8.83;56.61;96356.19;5030773;28;20969;-71
2022/02/21 04:14:29;;;;;;;1.37;0.80;;;;;;;8.64;57.01;96359.91;5030773;28;20210;-69
2022/02/21 04:16:54;;;;;;;1.50;0.70;;;;;;;8.45;56.97;96348.75;5029642;28;20448;-71
2022/02/21 04:19:20;;;;;;;2.20;0.93;;;;;;;8.50;56.80;96352.72;5030845;28;20617;-70
2022/02/21 04:21:46;;;;;;;3.20;0.80;;;;;;;8.40;56.72;96343.19;5030773;28;20211;-71
2022/02/21 04:24:11;;;;;;;3.73;0.97;;;;;;;8.15;57.13;96356.19;5022204;28;20441;-70
2022/02/21 04:26:36;;;;;;;2.50;1.03;;;;;;;7.95;57.03;96339.94;5030149;28;20211;-71
2022/02/21 04:29:02;;;;;;;2.43;0.87;;;;;;;7.65;57.55;96341.28;5012904;28;20187;-70
2022/02/21 04:31:28;;;;;;;1.17;0.60;;;;;;;7.80;57.37;96351.94;5030255;28;20201;-70
2022/02/21 04:33:54;;;;;;;4.70;1.13;;;;;;;7.65;58.22;96343.88;5031359;28;20187;-72
2022/02/21 04:36:19;;;;;;;2.90;0.90;;;;;;;7.88;57.40;96340.72;5033548;28;20278;-72
2022/02/21 04:38:45;;;;;;;2.60;1.10;;;;;;;7.88;57.55;96345.94;5031292;28;20296;-71
2022/02/21 04:41:11;;;;;;;2.60;0.97;;;;;;;7.82;57.40;96319.50;5030696;28;20290;-70
2022/02/21 04:43:37;;;;;;;2.50;1.10;;;;;;;7.86;56.93;96286.13;5013472;28;20192;-70
2022/02/21 04:46:03;;;;;;;3.57;1.13;;;;;;;7.96;56.55;96263.31;5030714;28;20630;-70
2022/02/21 04:48:29;;;;;;;3.07;1.20;;;;;;;8.05;56.40;96287.66;5031394;28;20215;-72
2022/02/21 04:50:55;;;;;;;1.83;1.10;;;;;;;8.11;56.07;96289.59;5030730;28;20444;-70
2022/02/21 04:53:20;;;;;;;2.27;1.13;;;;;;;8.15;55.13;96298.75;5030683;28;20536;-72
2022/02/21 04:55:46;;;;;;;5.23;1.20;;;;;;;8.20;54.56;96285.22;5029974;28;20533;-72
2022/02/21 04:58:12;;;;;;;5.17;1.33;;;;;;;8.31;54.80;96286.72;5030562;28;20992;-71
2022/02/21 05:00:37;;;;;;;5.10;1.27;;;;;;;8.37;54.21;96309.56;5029842;28;20177;-71
2022/02/21 05:03:03;;;;;;;5.57;1.30;;;;;;;8.37;54.16;96321.81;5030631;28;20649;-72
2022/02/21 05:05:29;;;;;;;3.87;1.20;;;;;;;8.36;53.83;96307.94;5030058;28;20175;-71
2022/02/21 05:07:54;;;;;;;2.13;1.00;;;;;;;8.06;53.64;96294.50;5030712;28;20188;-73
2022/02/21 05:10:20;;;;;;;4.60;1.53;;;;;;;8.12;53.83;96300.88;5032350;28;20196;-71
2022/02/21 05:12:45;;;;;;;2.63;1.70;;;;;;;8.05;54.22;96318.97;5031156;28;20658;-71
2022/02/21 05:15:11;;;;;;;7.97;1.47;;;;;;;8.05;54.54;96329.41;5029632;28;20639;-71
2022/02/21 05:17:37;;;;;;;4.23;1.40;;;;;;;8.19;53.90;96348.03;5030668;28;20195;-71
2022/02/21 05:20:08;;;;;;;4.60;1.87;;;;;;;8.17;53.26;96358.63;5029938;28;20788;-69
2022/02/21 05:22:34;;;;;;;5.60;1.20;;;;;;;8.19;53.91;96345.44;5022544;28;20275;-72
2022/02/21 05:24:59;;;;;;;6.50;1.60;;;;;;;8.30;53.31;96347.75;5029849;28;20853;-72
2022/02/21 05:27:25;;;;;;;11.73;1.90;;;;;;;8.33;53.36;96351.81;5031063;28;20220;-72
2022/02/21 05:29:50;;;;;;;6.60;2.23;;;;;;;8.26;53.66;96335.97;5033445;28;20551;-71
2022/02/21 05:32:16;;;;;;;10.47;2.33;;;;;;;8.40;53.06;96348.41;5032553;28;20202;-70
2022/02/21 05:34:42;;;;;;;6.63;1.90;;;;;;;8.44;52.71;96341.88;5033547;28;20191;-70
2022/02/21 05:37:08;;;;;;;6.83;2.23;;;;;;;8.37;52.65;96330.44;5033547;28;20211;-70
2022/02/21 05:39:34;;;;;;;7.90;1.57;;;;;;;8.45;52.54;96351.34;5033265;28;20191;-71
2022/02/21 05:42:00;;;;;;;7.83;1.90;;;;;;;8.31;53.00;96338.94;5033742;28;20429;-71
2022/02/21 05:44:26;;;;;;;9.03;1.87;;;;;;;8.44;52.85;96323.59;5033153;28;20541;-71
2022/02/21 05:46:51;;;;;;;8.13;1.53;;;;;;;8.54;52.77;96327.91;5032814;28;20229;-71
2022/02/21 05:49:17;;;;;;;7.03;1.47;;;;;;;8.42;52.86;96345.63;5033416;28;20427;-72
2022/02/21 05:51:42;;;;;;;4.23;1.60;;;;;;;8.45;52.13;96387.09;5033140;28;20709;-70
2022/02/21 05:54:08;;;;;;;9.23;1.60;;;;;;;8.60;52.80;96385.56;5033053;28;20689;-71
2022/02/21 05:56:34;;;;;;;9.17;1.87;;;;;;;8.61;52.27;96381.13;5033184;28;20223;-73
2022/02/21 05:58:59;;;;;;;6.20;1.73;;;;;;;8.63;52.11;96360.91;5033180;28;20191;-73
2022/02/21 06:01:25;;;;;;;6.83;2.20;;;;;;;8.67;51.29;96348.31;5032794;28;20282;-73
2022/02/21 06:03:50;;;;;;;7.60;2.53;;;;;;;8.60;51.54;96356.00;5015590;28;20193;-72
2022/02/21 06:06:16;;;;;;;13.47;1.90;;;;;;;8.64;51.57;96380.81;5032030;28;20220;-71
2022/02/21 06:08:41;;;;;;;4.40;1.50;;;;;;;8.57;51.73;96372.81;5033389;28;20709;-72
2022/02/21 06:11:07;;;;;;;7.10;2.20;;;;;;;8.65;52.02;96381.63;5032806;28;20224;-71
2022/02/21 06:13:32;;;;;;;9.37;2.23;;;;;;;8.62;50.81;96397.63;5024995;28;20257;-72
2022/02/21 06:15:59;;;;;;;8.53;1.90;;;;;;;8.42;50.45;96403.91;5032971;28;20193;-72
2022/02/21 06:18:24;;;;;;;5.67;1.77;;;;;;;8.60;50.26;96400.38;5032742;28;20242;-71
2022/02/21 06:20:50;;;;;;;6.70;1.80;;;;;;;8.66;50.45;96389.31;5033043;28;20842;-72
2022/02/21 06:23:16;;;;;;;5.50;1.70;;;;;;;8.67;49.99;96382.28;5015253;28;20198;-72
2022/02/21 06:25:44;;;;;;;8.57;1.77;;;;;;;8.64;50.10;96401.72;5027942;28;20222;-70
2022/02/21 06:28:10;;;;;;;9.53;2.33;;;;;;;8.58;50.51;96426.69;5037762;28;20760;-72
2022/02/21 06:30:36;;;;;;;10.97;1.70;;;;;;;8.69;50.16;96425.56;5037494;28;20430;-72
2022/02/21 06:33:02;;;;;;;7.80;2.83;;;;;;;8.64;50.26;96409.56;5012107;28;20477;-72
2022/02/21 06:35:27;;;;;;;4.00;1.90;;;;;;;8.50;50.50;96404.94;5032123;28;20457;-72
2022/02/21 06:37:54;;;;;;;5.83;2.17;;;;;;;8.59;50.70;96419.66;5032780;28;20189;-71
2022/02/21 06:40:21;;;;;;;7.30;1.90;;;;;;;8.48;50.26;96433.00;5031714;28;20193;-72
2022/02/21 06:42:48;;;;;;;16.83;2.13;;;;;;;8.22;51.20;96428.63;5032553;28;20464;-71
2022/02/21 06:45:14;;;;;;;8.70;1.77;;;;;;;8.43;50.77;96447.34;5032490;28;20454;-72
2022/02/21 06:47:39;;;;;;;6.10;2.17;;;;;;;8.58;50.05;96441.50;5032638;28;20525;-71
2022/02/21 06:50:06;;;;;;;3.17;1.60;;;;;;;8.75;50.64;96477.16;5032616;28;20992;-71
2022/02/21 06:52:32;;;;;;;9.87;2.57;;;;;;;8.64;50.49;96464.41;5031346;28;20179;-70
2022/02/21 06:55:01;;;;;;;8.53;1.37;;;;;;;8.66;50.04;96467.69;5032236;28;21118;-71
2022/02/21 06:57:27;;;;;;;11.20;1.80;;;;;;;8.55;49.81;96474.00;5032046;28;20246;-70
2022/02/21 06:59:53;;;;;;;6.23;1.60;;;;;;;8.63;49.83;96462.75;5032499;28;20613;-71
2022/02/21 07:02:18;;;;;;;7.67;1.70;;;;;;;8.60;49.58;96469.13;5039071;28;20540;-70
2022/02/21 07:04:43;;;;;;;9.33;1.70;;;;;;;8.53;48.80;96488.19;5032332;28;20187;-71
2022/02/21 07:07:09;;;;;;;9.10;2.20;;;;;;;8.52;47.73;96481.34;5014408;28;20214;-71
2022/02/21 07:09:34;;;;;;;9.67;2.30;;;;;;;8.56;47.60;96487.91;5031387;28;20176;-69
2022/02/21 07:12:00;;;;;;;15.23;1.83;;;;;;;8.38;47.33;96486.13;5032594;28;20203;-72
2022/02/21 07:14:25;;;;;;;11.67;2.03;;;;;;;8.32;47.00;96491.97;5032102;28;20716;-72
2022/02/21 07:16:51;;;;;;;8.57;2.07;;;;;;;8.36;46.50;96493.31;5032210;28;20302;-72
2022/02/21 07:19:17;;;;;;;10.53;2.93;;;;;;;8.32;46.59;96502.41;5032303;28;20520;-72
2022/02/21 07:21:42;;;;;;;7.17;2.13;;;;;;;8.49;46.72;96503.38;5032104;28;20432;-71
2022/02/21 07:24:09;;;;;;;7.63;1.83;;;;;;;8.35;46.67;96502.09;5031840;28;20195;-71
2022/02/21 07:26:35;;;;;;;15.83;2.20;;;;;;;8.35;46.03;96498.69;5031507;28;20203;-71
2022/02/21 07:29:00;;;;;;;7.33;2.30;;;;;;;8.32;46.36;96497.19;5031935;28;20471;-71
2022/02/21 07:31:26;;;;;;;10.70;2.40;;;;;;;8.45;46.10;96492.34;5032123;28;20634;-70
2022/02/21 07:33:51;;;;;;;13.67;2.17;;;;;;;8.57;46.00;96487.72;5031454;28;20187;-73
2022/02/21 07:36:17;;;;;;;10.27;2.23;;;;;;;8.60;45.85;96494.41;5031366;28;20207;-72
2022/02/21 07:38:42;;;;;;;11.57;2.00;;;;;;;8.67;46.35;96492.84;5031306;28;20576;-72
2022/02/21 07:41:07;;;;;;;8.90;2.33;;;;;;;8.70;45.34;96505.56;5031170;28;20195;-71
2022/02/21 07:43:33;;;;;;;7.03;2.00;;;;;;;8.66;46.46;96514.69;5031700;28;20198;-72
2022/02/21 07:45:58;;;;;;;7.00;2.10;;;;;;;8.69;46.05;96530.06;5031191;28;20214;-71
2022/02/21 07:48:24;;;;;;;9.47;2.37;;;;;;;8.61;45.57;96532.63;5031376;28;20716;-72
2022/02/21 07:50:54;;;;;;;10.20;2.30;;;;;;;8.68;45.92;96533.66;5030811;28;20205;-72
2022/02/21 07:53:20;;;;;;;9.57;2.63;;;;;;;8.58;45.22;96528.53;5031115;28;20198;-71
2022/02/21 07:55:46;;;;;;;11.20;1.97;;;;;;;8.72;45.43;96544.59;5030211;28;20453;-72
2022/02/21 07:58:13;;;;;;;9.30;2.10;;;;;;;8.57;44.75;96536.50;5031125;28;20448;-71
2022/02/21 08:00:38;;;;;;;7.83;1.90;;;;;;;8.57;45.24;96552.19;5031430;28;20493;-72
2022/02/21 08:03:04;;;;;;;10.00;2.27;;;;;;;8.70;44.88;96557.00;5030918;28;20466;-72
2022/02/21 08:05:29;;;;;;;11.43;2.20;;;;;;;8.86;45.62;96562.31;5030383;28;20188;-70
2022/02/21 08:07:55;;;;;;;15.23;2.50;;;;;;;8.99;45.11;96545.38;5030992;28;20207;-72
2022/02/21 08:10:20;;;;;;;14.53;2.30;;;;;;;9.23;45.30;96568.13;5030775;28;20217;-71
2022/02/21 08:12:46;;;;;;;8.60;2.17;;;;;;;9.16;44.56;96577.59;5031421;28;20621;-72
2022/02/21 08:15:14;;;;;;;10.77;2.50;;;;;;;9.25;44.54;96596.75;5031148;28;20199;-71
2022/02/21 08:17:45;;;;;;;8.53;2.17;;;;;;;9.37;44.19;96585.81;5031263;28;20825;-71
2022/02/21 08:20:12;;;;;;;8.87;2.30;;;;;;;9.39;44.57;96585.66;5031832;28;20484;-71
2022/02/21 08:22:37;;;;;;;10.70;2.50;;;;;;;9.46;43.69;96604.13;5032167;28;20427;-71
2022/02/21 08:25:04;;;;;;;11.83;2.20;;;;;;;9.53;44.02;96587.66;5031574;28;20872;-72
2022/02/21 08:27:29;;;;;;;9.43;2.20;;;;;;;9.76;43.31;96607.97;5027451;28;20249;-72
2022/02/21 08:29:55;;;;;;;13.53;2.23;;;;;;;10.11;43.21;96605.19;5030924;28;20422;-71
2022/02/21 08:32:20;;;;;;;13.73;2.37;;;;;;;10.47;42.26;96599.63;5030377;28;20185;-72
2022/02/21 08:34:46;;;;;;;11.43;2.20;;;;;;;10.55;41.64;96620.59;5030858;28;20275;-72
2022/02/21 08:37:13;;;;;;;9.53;2.67;;;;;;;10.84;41.00;96629.69;5030880;28;20285;-71
2022/02/21 08:39:38;;;;;;;14.30;3.60;;;;;;;11.03;40.65;96631.09;5033397;28;20539;-72
2022/02/21 08:42:04;;;;;;;7.03;2.13;;;;;;;11.23;40.52;96617.59;5015024;28;20506;-72
2022/02/21 08:44:31;;;;;;;6.67;2.20;;;;;;;11.46;40.08;96622.91;5030868;28;20209;-72
2022/02/21 08:46:57;;;;;;;9.60;2.17;;;;;;;11.69;39.65;96627.38;5031764;28;20219;-71
2022/02/21 08:49:23;;;;;;;12.07;2.27;;;;;;;11.43;39.45;96633.75;5030836;28;20942;-72
2022/02/21 08:51:48;;;;;;;9.83;2.43;;;;;;;11.32;39.60;96631.50;5030941;28;20439;-72
2022/02/21 08:54:14;;;;;;;13.67;2.37;;;;;;;11.21;40.28;96641.38;5030501;28;20198;-71
2022/02/21 08:56:39;;;;;;;8.53;2.47;;;;;;;11.26;40.50;96655.78;5033224;28;20285;-71
2022/02/21 08:59:05;;;;;;;15.10;3.03;;;;;;;11.28;40.56;96640.69;4996755;28;20192;-72
2022/02/21 09:01:31;;;;;;;10.43;2.37;;;;;;;11.44;40.14;96643.25;5030879;28;20607;-72
2022/02/21 09:03:56;;;;;;;7.73;2.23;;;;;;;11.82;39.98;96632.88;5016254;28;20285;-72
2022/02/21 09:06:22;;;;;;;6.63;1.80;;;;;;;12.21;39.65;96646.09;5033924;28;20707;-72
2022/02/21 09:08:47;;;;;;;6.00;1.80;;;;;;;12.48;38.08;96631.56;5034479;28;20190;-71
2022/02/21 09:11:13;;;;;;;9.83;2.97;;;;;;;12.49;38.18;96642.88;5016687;28;20815;-71
2022/02/21 09:13:38;;;;;;;11.77;2.20;;;;;;;12.58;38.10;96626.88;5016835;28;20208;-71
2022/02/21 09:16:05;;;;;;;6.90;1.83;;;;;;;12.49;39.04;96640.25;5034100;28;20208;-71
2022/02/21 09:18:31;;;;;;;9.73;2.13;;;;;;;12.43;38.41;96642.63;5016402;28;20176;-71
2022/02/21 09:20:56;;;;;;;10.63;2.07;;;;;;;12.26;38.45;96652.44;5034211;28;20482;-72
2022/02/21 09:23:22;;;;;;;5.03;1.83;;;;;;;12.24;38.59;96643.94;5033916;28;20685;-71
2022/02/21 09:25:47;;;;;;;6.00;1.67;;;;;;;12.33;38.81;96649.94;5033872;28;20273;-71
2022/02/21 09:28:13;;;;;;;6.93;2.10;;;;;;;12.30;38.40;96655.53;5034027;28;20184;-71
2022/02/21 09:30:39;;;;;;;11.37;2.00;;;;;;;12.55;38.45;96655.34;5034020;28;20211;-71
2022/02/21 09:33:05;;;;;;;5.50;1.80;;;;;;;12.76;38.50;96649.38;5033644;28;20188;-72
2022/02/21 09:35:30;;;;;;;9.73;2.33;;;;;;;13.36;38.18;96647.53;5033287;28;20191;-72
2022/02/21 09:37:57;;;;;;;13.27;2.53;;;;;;;13.62;37.03;96640.19;5033945;28;20299;-72
2022/02/21 09:40:23;;;;;;;10.23;2.40;;;;;;;13.84;36.52;96646.31;5033617;28;20256;-72
2022/02/21 09:42:49;;;;;;;8.80;2.80;;;;;;;14.08;36.42;96647.75;5016159;28;20422;-72
2022/02/21 09:45:18;;;;;;;9.90;2.53;;;;;;;13.90;35.74;96635.03;5033312;28;20191;-71
2022/02/21 09:47:44;;;;;;;7.00;1.93;;;;;;;13.83;35.22;96621.78;5037768;28;20202;-72
2022/02/21 09:50:11;;;;;;;9.40;2.07;;;;;;;14.18;35.56;96618.47;5018921;28;21126;-71
2022/02/21 09:52:37;;;;;;;9.40;1.90;;;;;;;14.08;35.06;96612.72;5038464;28;20432;-72
2022/02/21 09:55:03;;;;;;;6.10;2.20;;;;;;;13.92;34.86;96592.72;5033327;28;20557;-72
2022/02/21 09:57:29;;;;;;;7.13;1.60;;;;;;;14.13;34.06;96597.97;5015696;28;20451;-72
2022/02/21 09:59:55;;;;;;;8.07;1.90;;;;;;;14.37;33.92;96597.72;5032883;28;20435;-72
2022/02/21 10:02:26;;;;;;;6.73;1.97;;;;;;;13.86;34.15;96596.88;5032738;28;20194;-72
2022/02/21 10:05:11;;;;;;;7.20;2.03;;;;;;;14.07;33.56;96585.53;5032813;28;20190;-72
2022/02/21 10:07:38;;;;;;;7.73;1.90;;;;;;;14.47;33.35;96576.31;5033308;28;20511;-71
2022/02/21 10:10:04;;;;;;;8.57;2.10;;;;;;;14.74;33.29;96593.16;5015415;28;20446;-72
2022/02/21 10:12:30;;;;;;;9.27;1.63;;;;;;;14.79;33.24;96600.50;5015243;28;20425;-72
2022/02/21 10:15:32;;;;;;;8.00;2.43;;;;;;;15.26;32.78;96600.72;5014179;28;20945;-72
2022/02/21 10:18:18;;;;;;;6.23;1.53;;;;;;;15.01;32.45;96611.75;4958383;28;20919;-72
2022/02/21 10:20:57;;;;;;;7.40;2.00;;;;;;;14.96;32.47;96607.06;4971994;28;20499;-71
2022/02/21 10:23:23;;;;;;;11.17;2.23;;;;;;;15.13;32.08;96601.47;4971576;28;20440;-71
2022/02/21 10:25:58;;;;;;;9.03;2.33;;;;;;;14.53;32.38;96608.00;4971131;28;20475;-71
2022/02/21 10:28:51;;;;;;;8.43;1.80;;;;;;;15.08;31.88;96596.78;4955245;28;20440;-72
2022/02/21 10:31:20;;;;;;;4.77;1.70;;;;;;;14.77;31.87;96600.66;4969228;28;20448;-71
2022/02/21 10:33:59;;;;;;;9.10;2.00;;;;;;;15.25;31.67;96599.91;4970738;28;20859;-72
2022/02/21 10:36:33;;;;;;;7.30;1.90;;;;;;;15.79;31.12;96598.25;4938907;28;21251;-72
2022/02/21 10:39:00;;;;;;;9.23;2.20;;;;;;;15.86;29.92;96585.06;4971472;28;20430;-72
2022/02/21 10:41:43;;;;;;;6.50;1.87;;;;;;;15.47;30.12;96597.97;4962887;28;20456;-72
2022/02/21 10:44:18;;;;;;;8.50;2.00;;;;;;;15.58;30.29;96603.69;4971145;28;20629;-71
2022/02/21 10:47:07;;;;;;;8.50;1.97;;;;;;;15.57;30.56;96607.34;4973132;28;20486;-72
2022/02/21 10:49:34;;;;;;;4.87;1.60;;;;;;;15.30;29.58;96602.78;4970935;28;20925;-71
2022/02/21 10:52:01;;;;;;;3.10;1.70;;;;;;;15.33;29.71;96601.56;4995691;28;20442;-72
2022/02/21 10:54:29;;;;;;;5.00;1.70;;;;;;;15.25;29.65;96594.63;5032189;28;20441;-71
2022/02/21 10:56:54;;;;;;;7.03;1.57;;;;;;;15.09;29.88;96592.31;5014300;28;20493;-72
2022/02/21 10:59:21;;;;;;;7.20;1.63;;;;;;;14.92;29.85;96592.66;5031806;28;20496;-71
2022/02/21 11:01:48;;;;;;;10.83;2.13;;;;;;;14.66;29.76;96582.72;5032372;28;20192;-71
2022/02/21 11:04:14;;;;;;;7.10;2.00;;;;;;;14.76;29.85;96585.84;5031598;28;20500;-72
2022/02/21 11:06:40;;;;;;;4.30;1.70;;;;;;;14.77;29.11;96578.78;5034217;28;20474;-71
2022/02/21 11:09:08;;;;;;;8.40;1.70;;;;;;;14.70;30.00;96590.06;5014642;28;20436;-72
2022/02/21 11:11:36;;;;;;;6.17;1.90;;;;;;;14.99;29.88;96580.31;5025068;28;20858;-72
2022/02/21 11:14:01;;;;;;;8.20;1.70;;;;;;;14.89;29.49;96590.41;5033799;28;20438;-72
2022/02/21 11:16:29;;;;;;;4.23;1.43;;;;;;;14.25;30.53;96600.88;5015207;28;20950;-72
2022/02/21 11:18:55;;;;;;;4.57;1.70;;;;;;;14.09;31.43;96594.06;5033022;28;20230;-73
2022/02/21 11:21:21;;;;;;;2.90;1.47;;;;;;;13.58;32.31;96613.44;5032964;28;20521;-72
2022/02/21 11:23:46;;;;;;;8.80;1.50;;;;;;;13.16;33.14;96622.81;5035113;28;20901;-72
2022/02/21 11:26:28;;;;;;;4.80;1.43;;;;;;;12.90;33.91;96598.63;5034450;28;20670;-73
2022/02/21 11:29:21;;;;;;;7.83;1.63;;;;;;;12.88;34.34;96631.34;5000584;28;20179;-71
2022/02/21 11:31:47;;;;;;;6.23;1.80;;;;;;;12.43;35.68;96633.91;4938364;29;20455;-72
2022/02/21 11:34:12;;;;;;;4.90;1.77;;;;;;;11.91;37.02;96614.44;4938298;28;20497;-72